createdAt,value
2019-05-26T00:00:23.774Z,9.57
2019-05-26T00:02:53.547Z,11.85
2019-05-26T00:05:23.311Z,9.48
2019-05-26T00:07:53.097Z,9.33
2019-05-26T00:10:22.942Z,10.40
2019-05-26T00:12:52.787Z,10.10
2019-05-26T00:15:22.553Z,11.65
2019-05-26T00:17:52.457Z,10.25
2019-05-26T00:20:22.331Z,11.28
2019-05-26T00:22:52.103Z,9.07
2019-05-26T00:25:21.952Z,9.60
2019-05-26T00:27:51.715Z,9.90
2019-05-26T00:30:25.124Z,9.58
2019-05-26T00:33:02.207Z,10.00
2019-05-26T00:35:31.959Z,9.98
2019-05-26T00:38:01.917Z,12.55
2019-05-26T00:40:36.710Z,11.00
2019-05-26T00:43:06.485Z,9.80
2019-05-26T00:45:36.891Z,10.60
2019-05-26T00:48:10.829Z,10.60
2019-05-26T00:50:40.633Z,10.78
2019-05-26T00:53:10.558Z,10.48
2019-05-26T00:55:40.271Z,11.07
2019-05-26T00:58:16.852Z,11.70
2019-05-26T01:00:46.588Z,10.75
2019-05-26T01:03:16.704Z,11.35
2019-05-26T01:05:52.284Z,10.80
2019-05-26T01:08:29.544Z,9.37
2019-05-26T01:11:01.400Z,11.30
2019-05-26T01:13:30.904Z,12.53
2019-05-26T01:16:00.761Z,10.72
2019-05-26T01:18:30.700Z,11.48
2019-05-26T01:21:00.553Z,13.32
2019-05-26T01:23:30.328Z,10.15
2019-05-26T01:26:00.178Z,11.75
2019-05-26T01:28:29.981Z,11.55
2019-05-26T01:30:59.865Z,12.25
2019-05-26T01:33:29.611Z,11.83
2019-05-26T01:35:59.981Z,11.53
2019-05-26T01:38:35.053Z,11.57
2019-05-26T01:41:04.900Z,12.98
2019-05-26T01:43:34.689Z,11.83
2019-05-26T01:46:04.507Z,12.37
2019-05-26T01:48:34.296Z,12.95
2019-05-26T01:51:04.103Z,9.78
2019-05-26T01:53:33.773Z,11.87
2019-05-26T01:56:03.544Z,11.35
2019-05-26T01:58:34.297Z,12.50
2019-05-26T02:01:04.158Z,11.68
2019-05-26T02:03:34.525Z,11.18
2019-05-26T02:06:04.392Z,12.67
2019-05-26T02:08:39.392Z,12.78
2019-05-26T02:11:06.650Z,10.72
2019-05-26T02:13:36.465Z,10.90
2019-05-26T02:16:06.540Z,11.20
2019-05-26T02:18:36.383Z,10.75
2019-05-26T02:21:06.201Z,12.50
2019-05-26T02:23:36.051Z,10.63
2019-05-26T02:26:05.839Z,10.53
2019-05-26T02:28:35.722Z,10.30
2019-05-26T02:31:05.441Z,11.87
2019-05-26T02:33:35.302Z,11.80
2019-05-26T02:36:05.545Z,10.23
2019-05-26T02:38:35.287Z,14.05
2019-05-26T02:41:05.062Z,11.90
2019-05-26T02:43:34.954Z,13.53
2019-05-26T02:46:04.979Z,13.53
2019-05-26T02:48:34.769Z,10.93
2019-05-26T02:51:04.533Z,11.55
2019-05-26T02:53:34.334Z,13.10
2019-05-26T02:56:05.026Z,13.32
2019-05-26T02:58:36.767Z,13.22
2019-05-26T03:01:06.646Z,12.70
2019-05-26T03:03:36.493Z,14.23
2019-05-26T03:06:07.436Z,13.23
2019-05-26T03:08:58.160Z,12.70
2019-05-26T03:11:29.812Z,13.93
2019-05-26T03:14:01.594Z,15.03
2019-05-26T03:16:33.584Z,14.00
2019-05-26T03:19:04.811Z,14.20
2019-05-26T03:21:35.540Z,13.60
2019-05-26T03:24:05.715Z,14.65
2019-05-26T03:26:38.482Z,14.20
2019-05-26T03:29:08.428Z,14.47
2019-05-26T03:31:39.178Z,15.20
2019-05-26T03:34:09.001Z,14.55
2019-05-26T03:36:38.760Z,16.23
2019-05-26T03:39:12.438Z,16.20
2019-05-26T03:41:42.277Z,15.25
2019-05-26T03:44:13.108Z,15.85
2019-05-26T03:46:42.921Z,16.37
2019-05-26T03:49:12.765Z,18.20
2019-05-26T03:51:42.628Z,15.32
2019-05-26T03:54:13.473Z,15.13
2019-05-26T03:56:43.276Z,15.40
2019-05-26T03:59:13.098Z,17.12
2019-05-26T04:01:42.767Z,15.55
2019-05-26T04:04:12.557Z,18.48
2019-05-26T04:06:42.480Z,17.62
2019-05-26T04:09:15.674Z,18.53
2019-05-26T04:11:45.463Z,17.07
2019-05-26T04:14:15.335Z,18.10
2019-05-26T04:16:47.281Z,19.85
2019-05-26T04:19:18.035Z,17.87
2019-05-26T04:21:47.911Z,18.40
2019-05-26T04:24:36.672Z,19.37
2019-05-26T04:27:07.547Z,21.33
2019-05-26T04:29:39.995Z,21.10
2019-05-26T04:32:09.764Z,19.42
2019-05-26T04:34:39.628Z,17.45
2019-05-26T04:37:09.496Z,19.70
2019-05-26T04:39:44.105Z,23.75
2019-05-26T04:42:14.015Z,20.40
2019-05-26T04:44:43.891Z,19.82
2019-05-26T04:47:13.685Z,20.90
2019-05-26T04:49:49.807Z,24.20
2019-05-26T04:52:19.550Z,20.80
2019-05-26T04:54:49.331Z,20.85
2019-05-26T04:57:19.213Z,21.45
2019-05-26T04:59:49.070Z,19.87
2019-05-26T05:02:18.892Z,21.60
2019-05-26T05:04:48.772Z,18.87
2019-05-26T05:07:18.564Z,22.55
2019-05-26T05:09:49.079Z,20.35
2019-05-26T05:12:18.818Z,20.93
2019-05-26T05:14:49.578Z,21.00
2019-05-26T05:17:20.846Z,22.52
2019-05-26T05:20:03.033Z,24.12
2019-05-26T05:22:32.735Z,23.25
2019-05-26T05:25:02.529Z,23.00
2019-05-26T05:27:33.340Z,21.62
2019-05-26T05:30:13.525Z,20.68
2019-05-26T05:32:48.899Z,22.63
2019-05-26T05:35:19.176Z,21.03
2019-05-26T05:37:48.945Z,24.33
2019-05-26T05:40:19.649Z,22.82
2019-05-26T05:42:49.414Z,24.25
2019-05-26T05:45:25.641Z,19.95
2019-05-26T05:48:13.531Z,19.05
2019-05-26T05:50:44.400Z,20.77
2019-05-26T05:53:16.892Z,25.15
2019-05-26T05:55:46.903Z,18.05
2019-05-26T05:58:22.653Z,19.87
2019-05-26T06:00:52.444Z,24.52
2019-05-26T06:03:22.322Z,19.90
2019-05-26T06:05:52.148Z,18.70
2019-05-26T06:08:21.979Z,19.87
2019-05-26T06:10:51.831Z,20.55
2019-05-26T06:13:21.630Z,17.98
2019-05-26T06:15:51.429Z,16.93
2019-05-26T06:18:24.681Z,18.48
2019-05-26T06:21:04.946Z,16.83
2019-05-26T06:23:37.038Z,17.83
2019-05-26T06:26:08.198Z,16.23
2019-05-26T06:28:38.954Z,15.75
2019-05-26T06:31:08.745Z,16.47
2019-05-26T06:33:38.590Z,17.57
2019-05-26T06:36:08.360Z,16.23
2019-05-26T06:38:50.077Z,17.87
2019-05-26T06:41:33.072Z,19.40
2019-05-26T06:47:05.874Z,18.23
2019-05-26T06:52:33.568Z,15.23
2019-05-26T07:08:05.491Z,14.87
2019-05-26T07:10:30.761Z,15.28
2019-05-26T07:13:08.771Z,13.58
2019-05-26T07:15:46.005Z,14.70
2019-05-26T07:18:23.208Z,14.00
2019-05-26T07:20:54.664Z,12.03
2019-05-26T07:26:15.931Z,16.57
2019-05-26T08:00:25.921Z,8.77
2019-05-26T08:03:19.748Z,8.45
2019-05-26T08:12:26.931Z,9.10
2019-05-26T08:14:51.216Z,7.60
2019-05-26T08:17:21.087Z,6.75
2019-05-26T08:19:51.039Z,7.67
2019-05-26T08:22:23.670Z,7.50
2019-05-26T08:24:58.136Z,9.90
2019-05-26T08:27:27.920Z,7.58
2019-05-26T08:29:58.733Z,9.05
2019-05-26T08:32:28.597Z,8.03
2019-05-26T08:34:58.460Z,7.80
2019-05-26T08:37:28.319Z,8.13
2019-05-26T08:39:59.645Z,9.37
2019-05-26T08:42:43.909Z,9.70
2019-05-26T08:45:01.940Z,7.37
2019-05-26T08:47:31.800Z,9.08
2019-05-26T08:50:01.632Z,7.65
2019-05-26T08:52:31.504Z,8.20
2019-05-26T08:55:01.256Z,7.80
2019-05-26T08:57:31.036Z,6.87
2019-05-26T09:00:00.920Z,7.90
2019-05-26T09:02:30.656Z,6.42
2019-05-26T09:05:00.432Z,8.77
2019-05-26T09:07:30.229Z,10.58
2019-05-26T09:10:00.141Z,8.33
2019-05-26T09:12:29.904Z,9.53
2019-05-26T09:14:59.757Z,9.43
2019-05-26T09:17:29.570Z,11.03
2019-05-26T09:19:59.363Z,8.33
2019-05-26T09:22:31.447Z,7.70
2019-05-26T09:25:01.416Z,8.48
2019-05-26T09:27:31.672Z,7.30
2019-05-26T09:30:01.486Z,8.33
2019-05-26T09:32:32.281Z,7.67
2019-05-26T09:35:03.724Z,10.75
2019-05-26T09:37:33.498Z,9.58
2019-05-26T09:40:06.952Z,11.60
2019-05-26T09:42:38.240Z,9.68
2019-05-26T09:45:11.294Z,8.78
2019-05-26T09:47:41.182Z,9.08
2019-05-26T09:50:29.039Z,12.63
2019-05-26T09:52:58.862Z,9.33
2019-05-26T09:55:28.827Z,9.93
2019-05-26T09:58:01.030Z,10.35
2019-05-26T10:00:30.821Z,11.53
2019-05-26T10:03:00.667Z,10.08
2019-05-26T10:05:31.415Z,10.50
2019-05-26T10:08:01.249Z,9.88
2019-05-26T10:10:31.071Z,11.38
2019-05-26T10:13:00.916Z,9.45
2019-05-26T10:15:30.790Z,8.77
2019-05-26T10:18:06.058Z,10.43
2019-05-26T10:20:36.846Z,11.38
2019-05-26T10:23:06.789Z,8.38
2019-05-26T10:25:36.535Z,11.33
2019-05-26T10:28:06.447Z,10.55
2019-05-26T10:30:36.236Z,10.20
2019-05-26T10:33:06.020Z,8.98
2019-05-26T10:35:35.865Z,9.28
2019-05-26T10:38:05.849Z,7.62
2019-05-26T10:40:37.811Z,7.62
2019-05-26T10:43:08.767Z,7.60
2019-05-26T10:45:38.545Z,9.58
2019-05-26T10:48:10.329Z,7.35
2019-05-26T10:50:40.074Z,7.33
2019-05-26T10:53:09.913Z,8.38
2019-05-26T10:55:39.715Z,6.17
2019-05-26T10:58:09.650Z,9.50
2019-05-26T11:00:39.449Z,9.73
2019-05-26T11:03:09.684Z,7.62
2019-05-26T11:05:39.410Z,7.65
2019-05-26T11:08:09.340Z,10.00
2019-05-26T11:10:39.081Z,7.45
2019-05-26T11:13:08.932Z,6.20
2019-05-26T11:15:38.755Z,8.33
2019-05-26T11:18:09.592Z,7.87
2019-05-26T11:20:39.402Z,6.50
2019-05-26T11:23:09.180Z,7.10
2019-05-26T11:25:38.911Z,6.75
2019-05-26T11:28:08.839Z,6.87
2019-05-26T11:30:38.564Z,8.15
2019-05-26T11:33:08.445Z,7.83
2019-05-26T11:35:38.231Z,6.35
2019-05-26T11:38:08.084Z,8.10
2019-05-26T11:40:37.881Z,6.00
2019-05-26T11:43:16.301Z,7.28
2019-05-26T11:45:39.039Z,6.50
2019-05-26T11:48:09.823Z,6.55
2019-05-26T11:50:39.605Z,6.92
2019-05-26T11:53:09.458Z,5.55
2019-05-26T11:55:39.310Z,7.05
2019-05-26T11:58:09.118Z,9.53
2019-05-26T12:00:39.170Z,6.37
2019-05-26T12:03:09.007Z,7.22
2019-05-26T12:05:38.867Z,8.03
2019-05-26T12:08:08.646Z,5.60
2019-05-26T12:10:38.435Z,8.55
2019-05-26T12:13:08.301Z,6.85
2019-05-26T12:15:38.050Z,7.90
2019-05-26T12:18:07.877Z,6.62
2019-05-26T12:20:37.719Z,5.08
2019-05-26T12:23:07.519Z,5.15
2019-05-26T12:25:37.234Z,7.75
2019-05-26T12:28:08.018Z,6.63
2019-05-26T12:30:37.855Z,5.60
2019-05-26T12:33:07.793Z,5.92
2019-05-26T12:35:41.931Z,5.22
2019-05-26T12:38:11.917Z,4.10
2019-05-26T12:40:41.812Z,5.10
2019-05-26T12:43:11.767Z,5.92
2019-05-26T12:45:42.567Z,5.20
2019-05-26T12:48:12.421Z,5.67
2019-05-26T12:50:42.291Z,6.45
2019-05-26T12:53:13.031Z,4.73
2019-05-26T12:55:42.812Z,4.22
2019-05-26T12:58:12.651Z,5.58
2019-05-26T13:00:48.667Z,3.92
2019-05-26T13:03:13.779Z,3.50
2019-05-26T13:05:44.110Z,4.92
2019-05-26T13:08:13.919Z,4.60
2019-05-26T13:10:43.689Z,4.60
2019-05-26T13:13:13.552Z,4.85
2019-05-26T13:15:43.266Z,5.45
2019-05-26T13:18:13.112Z,3.35
2019-05-26T13:20:42.975Z,4.30
2019-05-26T13:23:12.781Z,3.22
2019-05-26T13:25:42.573Z,5.25
2019-05-26T13:28:18.872Z,4.37
2019-05-26T13:30:48.546Z,2.90
2019-05-26T13:33:18.329Z,2.80
2019-05-26T13:35:48.843Z,4.53
2019-05-26T13:38:18.563Z,4.40
2019-05-26T13:40:48.347Z,3.37
2019-05-26T13:43:18.095Z,3.80
2019-05-26T13:45:47.955Z,2.90
2019-05-26T13:48:19.693Z,3.47
2019-05-26T13:50:49.495Z,2.33
2019-05-26T13:53:19.486Z,4.17
2019-05-26T13:55:49.392Z,3.58
2019-05-26T13:58:22.595Z,4.45
2019-05-26T14:00:52.397Z,4.20
2019-05-26T14:03:24.193Z,4.40
2019-05-26T14:05:53.648Z,2.50
2019-05-26T14:08:23.508Z,2.60
2019-05-26T14:10:53.304Z,3.17
2019-05-26T14:13:23.083Z,2.65
2019-05-26T14:15:55.331Z,3.08
2019-05-26T14:18:25.841Z,1.93
2019-05-26T14:20:55.556Z,1.60
2019-05-26T14:23:25.319Z,2.27
2019-05-26T14:25:55.201Z,2.43
2019-05-26T14:28:32.227Z,2.55
2019-05-26T14:31:02.015Z,3.17
2019-05-26T14:33:31.823Z,3.22
2019-05-26T14:36:01.690Z,3.35
2019-05-26T14:38:42.801Z,1.55
2019-05-26T14:41:05.652Z,3.20
2019-05-26T14:43:35.430Z,2.87
2019-05-26T14:46:06.219Z,2.25
2019-05-26T14:48:36.047Z,1.85
2019-05-26T14:51:05.921Z,1.65
2019-05-26T14:53:35.677Z,1.73
2019-05-26T14:56:05.443Z,2.50
2019-05-26T14:58:35.167Z,1.07
2019-05-26T15:01:05.020Z,1.72
2019-05-26T15:03:34.805Z,2.50
2019-05-26T15:06:06.210Z,1.77
2019-05-26T15:08:54.424Z,2.90
2019-05-26T15:11:24.264Z,2.83
2019-05-26T15:13:54.005Z,3.35
2019-05-26T15:16:23.859Z,1.05
2019-05-26T15:18:56.248Z,2.27
2019-05-26T15:21:26.107Z,3.87
2019-05-26T15:23:55.833Z,1.32
2019-05-26T15:26:25.691Z,2.33
2019-05-26T15:28:55.472Z,1.85
2019-05-26T15:31:25.311Z,1.95
2019-05-26T15:33:55.133Z,2.98
2019-05-26T15:36:24.989Z,3.05
2019-05-26T15:38:54.648Z,5.15
2019-05-26T15:41:24.458Z,3.35
2019-05-26T15:43:54.187Z,4.60
2019-05-26T15:46:25.833Z,2.67
2019-05-26T15:48:58.730Z,2.27
2019-05-26T15:51:28.573Z,2.35
2019-05-26T15:53:58.381Z,4.00
2019-05-26T15:56:28.148Z,3.55
2019-05-26T15:59:16.350Z,3.20
2019-05-26T16:01:47.480Z,3.00
2019-05-26T16:04:17.768Z,6.00
2019-05-26T16:06:48.736Z,3.35
2019-05-26T16:09:56.562Z,2.83
2019-05-26T16:12:29.018Z,3.47
2019-05-26T16:14:58.874Z,5.50
2019-05-26T16:17:39.285Z,3.90
2019-05-26T16:23:02.390Z,3.90
2019-05-26T16:28:55.439Z,3.55
2019-05-26T16:31:30.241Z,2.27
2019-05-26T16:34:04.000Z,3.40
2019-05-26T16:43:34.079Z,3.00
2019-05-26T16:46:04.192Z,4.30
2019-05-26T16:48:54.909Z,2.35
2019-05-26T16:51:24.799Z,2.90
2019-05-26T16:53:54.575Z,3.47
2019-05-26T16:56:24.439Z,3.22
2019-05-26T16:58:54.296Z,6.72
2019-05-26T17:01:24.065Z,6.58
2019-05-26T17:03:53.831Z,4.90
2019-05-26T17:06:23.545Z,4.63
2019-05-26T17:08:55.332Z,4.87
2019-05-26T17:11:25.126Z,5.33
2019-05-26T17:13:54.849Z,5.55
2019-05-26T17:16:24.592Z,6.30
2019-05-26T17:18:54.379Z,5.70
2019-05-26T17:21:24.203Z,5.42
2019-05-26T17:23:54.008Z,6.62
2019-05-26T17:26:23.666Z,6.33
2019-05-26T17:28:53.580Z,7.33
2019-05-26T17:31:23.307Z,5.75
2019-05-26T17:33:53.149Z,4.70
2019-05-26T17:36:22.994Z,7.53
2019-05-26T17:38:54.865Z,4.70
2019-05-26T17:41:24.646Z,6.65
2019-05-26T17:43:54.373Z,5.33
2019-05-26T17:46:24.211Z,3.83
2019-05-26T17:48:54.168Z,2.97
2019-05-26T17:51:23.962Z,3.55
2019-05-26T17:53:53.680Z,4.17
2019-05-26T17:56:24.457Z,4.28
2019-05-26T17:58:54.243Z,4.65
2019-05-26T18:01:24.032Z,3.97
2019-05-26T18:03:53.752Z,3.12
2019-05-26T18:06:23.586Z,5.20
2019-05-26T18:08:53.447Z,4.30
2019-05-26T18:11:23.290Z,3.30
2019-05-26T18:13:53.088Z,5.50
2019-05-26T18:16:22.874Z,4.75
2019-05-26T18:18:52.728Z,3.98
2019-05-26T18:21:22.562Z,4.72
2019-05-26T18:23:52.313Z,5.70
2019-05-26T18:26:22.161Z,4.00
2019-05-26T18:28:54.127Z,4.03
2019-05-26T18:31:23.962Z,5.45
2019-05-26T18:33:53.702Z,5.35
2019-05-26T18:36:23.406Z,4.35
2019-05-26T18:38:53.255Z,4.80
2019-05-26T18:41:23.120Z,4.20
2019-05-26T18:43:52.957Z,4.78
2019-05-26T18:46:22.816Z,3.92
2019-05-26T18:48:54.046Z,5.47
2019-05-26T18:51:23.827Z,6.05
2019-05-26T18:53:54.662Z,4.85
2019-05-26T18:56:24.520Z,4.37
2019-05-26T18:58:54.440Z,4.45
2019-05-26T19:01:24.215Z,4.42
2019-05-26T19:03:53.987Z,4.55
2019-05-26T19:06:24.111Z,2.85
2019-05-26T19:08:53.943Z,4.60
2019-05-26T19:11:23.706Z,3.22
2019-05-26T19:13:53.555Z,3.70
2019-05-26T19:16:23.312Z,2.70
2019-05-26T19:18:53.076Z,3.33
2019-05-26T19:21:22.823Z,3.87
2019-05-26T19:23:52.660Z,3.45
2019-05-26T19:26:22.528Z,4.35
2019-05-26T19:28:52.457Z,4.00
2019-05-26T19:31:22.223Z,3.02
2019-05-26T19:33:53.134Z,3.60
2019-05-26T19:36:22.933Z,2.02
2019-05-26T19:38:52.833Z,3.50
2019-05-26T19:41:23.791Z,2.02
2019-05-26T19:43:53.504Z,2.00
2019-05-26T19:46:23.384Z,2.17
2019-05-26T19:48:53.215Z,2.10
2019-05-26T19:51:23.000Z,1.72
2019-05-26T19:53:53.838Z,2.15
2019-05-26T19:56:23.684Z,2.90
2019-05-26T19:58:53.468Z,2.72
2019-05-26T20:01:23.318Z,2.13
2019-05-26T20:03:53.147Z,1.35
2019-05-26T20:06:23.938Z,1.63
2019-05-26T20:08:53.751Z,2.25
2019-05-26T20:11:23.522Z,1.70
2019-05-26T20:13:53.295Z,2.47
2019-05-26T20:16:23.101Z,2.58
2019-05-26T20:18:52.932Z,3.20
2019-05-26T20:21:22.608Z,3.50
2019-05-26T20:23:52.405Z,4.22
2019-05-26T20:26:22.183Z,2.40
2019-05-26T20:28:54.178Z,3.85
2019-05-26T20:31:23.943Z,3.30
2019-05-26T20:33:53.668Z,2.47
2019-05-26T20:36:23.439Z,4.57
2019-05-26T20:38:53.172Z,4.85
2019-05-26T20:41:23.046Z,5.62
2019-05-26T20:43:52.787Z,6.25
2019-05-26T20:46:22.559Z,4.35
2019-05-26T20:48:52.815Z,5.00
2019-05-26T20:51:22.583Z,6.17
2019-05-26T20:53:53.373Z,5.30
2019-05-26T20:56:26.369Z,4.97
2019-05-26T20:58:59.374Z,4.65
2019-05-26T21:01:29.228Z,5.72
2019-05-26T21:03:59.033Z,6.37
2019-05-26T21:06:28.877Z,5.30
2019-05-26T21:08:58.736Z,6.58
2019-05-26T21:11:28.465Z,6.15
2019-05-26T21:13:58.295Z,5.25
2019-05-26T21:16:28.176Z,6.65
2019-05-26T21:18:59.048Z,4.83
2019-05-26T21:21:28.856Z,5.92
2019-05-26T21:23:59.335Z,4.53
2019-05-26T21:26:29.110Z,5.15
2019-05-26T21:28:58.816Z,6.57
2019-05-26T21:31:28.570Z,5.78
2019-05-26T21:33:58.368Z,4.58
2019-05-26T21:36:28.148Z,5.37
2019-05-26T21:38:57.941Z,6.75
2019-05-26T21:41:27.841Z,6.25
2019-05-26T21:43:57.519Z,7.15
2019-05-26T21:46:27.299Z,7.50
2019-05-26T21:48:57.019Z,6.03
2019-05-26T21:51:27.968Z,7.97
2019-05-26T21:53:57.805Z,5.60
2019-05-26T21:56:27.618Z,6.47
2019-05-26T21:58:57.479Z,5.97
2019-05-26T22:01:27.355Z,6.90
2019-05-26T22:03:57.152Z,5.75
2019-05-26T22:06:27.004Z,7.12
2019-05-26T22:08:56.792Z,7.20
2019-05-26T22:11:26.632Z,8.33
2019-05-26T22:13:56.368Z,9.47
2019-05-26T22:16:26.215Z,6.67
2019-05-26T22:18:56.081Z,6.65
2019-05-26T22:21:25.923Z,6.35
2019-05-26T22:23:55.760Z,6.22
2019-05-26T22:26:25.491Z,7.03
2019-05-26T22:28:55.336Z,6.25
2019-05-26T22:31:25.143Z,6.60
2019-05-26T22:33:55.015Z,6.03
2019-05-26T22:36:24.818Z,5.08
2019-05-26T22:38:54.737Z,7.75
2019-05-26T22:41:24.571Z,5.53
2019-05-26T22:43:54.418Z,5.92
2019-05-26T22:46:24.223Z,6.00
2019-05-26T22:48:54.155Z,4.20
2019-05-26T22:51:23.951Z,6.12
2019-05-26T22:53:53.769Z,5.60
2019-05-26T22:56:23.603Z,5.00
2019-05-26T22:58:55.510Z,5.80
2019-05-26T23:01:25.247Z,5.95
2019-05-26T23:03:55.123Z,5.37
2019-05-26T23:06:24.911Z,3.77
2019-05-26T23:08:54.728Z,4.00
2019-05-26T23:11:24.486Z,3.93
2019-05-26T23:13:54.317Z,4.30
2019-05-26T23:16:24.172Z,4.60
2019-05-26T23:18:53.923Z,4.65
2019-05-26T23:21:23.771Z,4.92
2019-05-26T23:23:53.579Z,3.47
2019-05-26T23:26:24.311Z,4.00
2019-05-26T23:28:54.319Z,3.20
2019-05-26T23:31:24.091Z,3.92
2019-05-26T23:33:53.795Z,3.47
2019-05-26T23:36:23.672Z,3.33
2019-05-26T23:38:53.536Z,4.40
2019-05-26T23:41:23.306Z,2.60
2019-05-26T23:43:53.112Z,3.47
2019-05-26T23:46:22.904Z,3.00
2019-05-26T23:48:52.652Z,3.93
2019-05-26T23:51:22.523Z,3.40
2019-05-26T23:53:52.303Z,2.95
2019-05-26T23:56:22.046Z,3.25
2019-05-26T23:58:51.739Z,3.22
